Terminal Aerodrome Forecast
Issued by NWS Lubbock, TX

Home | Current Version | Previous Version | Text Only | Print | Product List | Glossary On
Versions: 1 2 3 4 5 6 7 8 9 10 11 12 13 14 15 16 17 18 19 20 21 22 23 24 25 26 27 28 29 30 31 32
000
FTUS44 KLUB 211800 AAA
TAFLBB
TAF AMD
KLBB 211834Z 2119/2218 26017G23KT P6SM FEW200
     FM220000 25012KT P6SM FEW200
     FM220900 31012KT P6SM SCT200=

USA.gov is the U.S. government's official web portal to all federal, state and local government web resources and services.